Birmingham, AL

6:45 AM CST on February 19, 2017 (GMT -0600)
UAB HHB | | Change Station
Active Advisory: Dense Fog Advisory Active Notice: Public Information Statement

Elev 617 ft 33.50 °N, 86.81 °W | Updated 23 seconds ago

Clear
Clear
51.8 °F
Feels Like 51.8 °F
N
0.0
Wind Variable Wind from NNE
Gusts 5.0 mph

Today
High -- | Low -- °F
--% Chance of Precip.
Yesterday
High -- | Low -- °F
Precip. -- in
Pressure 30.10 in
Visibility 6.0 miles
Clouds Scattered Clouds 600 ft
Dew Point 51 °F
Humidity 97%
Rainfall 0.00 in
Snow Depth Not available.
6:26 AM 5:35 PM
Last Quarter, 43% visible
SPECI KBHM 191238Z 00000KT 6SM BR SCT006 08/08 A3010 RMK AO2 T00830078
Pressure 30.10 in
Visibility 6.0 miles
Clouds Scattered Clouds 600 ft
Dew Point 51 °F
Humidity 97%
Rainfall 0.00 in
Snow Depth Not available.
6:26 AM 5:35 PM
Last Quarter, 43% visible
SPECI KBHM 191238Z 00000KT 6SM BR SCT006 08/08 A3010 RMK AO2 T00830078

Get Your Daily Forecast Email!

Thanks for signing up!

Be on the lookout for a verification email in your inbox.

You'll start receiving the daily forecast at 8 AM.

×

10-Day Weather Forecast

Almanac

Astronomy

Feb. 19, 2017 Rise Set
Actual Time
Civil Twilight
Nautical Twilight
Astronomical Twilight
Moon
Length of Visible Light
Length of Day
Tomorrow will be .
, % of the Moon is Illuminated

Today's Extremes

State Highs State Lows

Community

WunderPhotos

Upload Photos

1,962,540 photos uploaded!

WunderBlog® & News

Nearby

Air Quality

  Air Quality AQ Index Pollutant
Not available.

Snow Depth

Station Depth Elevation

Earthquake Activity

City Distance Mag. Time & Date
Minimum magnitude displayed is 2.5.

Coastal Water Temperatures

Place Temperature

Stations

Nearby Weather Stations

Station Location Temp. Windchill Dew Point Humidity Wind Precip. Elev Updated Type
                   

Watches & Warnings

Dense Fog Advisory
Issued: 4:03 AM CST Feb. 19, 2017 – National Weather Service

... Dense fog advisory in effect until 8 am CST this morning...

The National Weather Service in Birmingham has issued a dense fog
advisory, which is in effect until 8 am CST this morning.

* Visibility... will drop to one quarter of a mile or less at
times in the advised area.

* Impacts... of the reduced visibilities will cause travel issues.


Precautionary/preparedness actions...

A dense fog advisory means visibilities will frequently be
reduced to less than one quarter mile. If driving... slow down...
use your headlights... and leave plenty of distance ahead of you.